sensor_id;sensor_type;location;lat;lon;timestamp;P1;durP1;ratioP1;P2;durP2;ratioP2
13891;SDS011;7016;48.172;8.058;2023-07-08T00:01:55;10.98;;;5.13;;
13891;SDS011;7016;48.172;8.058;2023-07-08T00:04:41;10.80;;;4.80;;
13891;SDS011;7016;48.172;8.058;2023-07-08T00:07:28;14.32;;;5.53;;
13891;SDS011;7016;48.172;8.058;2023-07-08T00:10:18;12.05;;;5.38;;
13891;SDS011;7016;48.172;8.058;2023-07-08T00:13:07;14.75;;;5.30;;
13891;SDS011;7016;48.172;8.058;2023-07-08T00:15:55;11.00;;;5.07;;
13891;SDS011;7016;48.172;8.058;2023-07-08T00:18:41;11.90;;;5.40;;
13891;SDS011;7016;48.172;8.058;2023-07-08T00:21:27;8.57;;;4.97;;
13891;SDS011;7016;48.172;8.058;2023-07-08T00:24:14;16.85;;;5.45;;
13891;SDS011;7016;48.172;8.058;2023-07-08T00:27:00;11.35;;;5.75;;
13891;SDS011;7016;48.172;8.058;2023-07-08T00:29:47;15.05;;;5.25;;
13891;SDS011;7016;48.172;8.058;2023-07-08T00:32:33;10.85;;;5.38;;
13891;SDS011;7016;48.172;8.058;2023-07-08T00:35:20;11.13;;;5.40;;
13891;SDS011;7016;48.172;8.058;2023-07-08T00:38:22;9.30;;;5.07;;
13891;SDS011;7016;48.172;8.058;2023-07-08T00:41:18;12.38;;;5.50;;
13891;SDS011;7016;48.172;8.058;2023-07-08T00:44:26;12.80;;;5.88;;
13891;SDS011;7016;48.172;8.058;2023-07-08T00:47:13;9.35;;;4.95;;
13891;SDS011;7016;48.172;8.058;2023-07-08T00:50:02;13.68;;;6.00;;
13891;SDS011;7016;48.172;8.058;2023-07-08T00:53:15;10.65;;;5.88;;
13891;SDS011;7016;48.172;8.058;2023-07-08T00:56:29;13.30;;;5.75;;
13891;SDS011;7016;48.172;8.058;2023-07-08T00:59:25;12.63;;;5.45;;
13891;SDS011;7016;48.172;8.058;2023-07-08T01:02:17;14.68;;;5.85;;
13891;SDS011;7016;48.172;8.058;2023-07-08T01:05:40;12.93;;;5.65;;
13891;SDS011;7016;48.172;8.058;2023-07-08T01:08:20;10.63;;;5.28;;
13891;SDS011;7016;48.172;8.058;2023-07-08T01:11:14;13.38;;;5.55;;
13891;SDS011;7016;48.172;8.058;2023-07-08T01:14:00;10.40;;;5.68;;
13891;SDS011;7016;48.172;8.058;2023-07-08T01:16:48;11.63;;;5.95;;
13891;SDS011;7016;48.172;8.058;2023-07-08T01:19:36;12.35;;;5.65;;
13891;SDS011;7016;48.172;8.058;2023-07-08T01:22:23;12.00;;;5.95;;
13891;SDS011;7016;48.172;8.058;2023-07-08T01:25:10;10.68;;;5.90;;
13891;SDS011;7016;48.172;8.058;2023-07-08T01:27:58;10.07;;;5.20;;
13891;SDS011;7016;48.172;8.058;2023-07-08T01:30:45;11.60;;;5.45;;
13891;SDS011;7016;48.172;8.058;2023-07-08T01:33:33;11.52;;;5.20;;
13891;SDS011;7016;48.172;8.058;2023-07-08T01:36:19;10.43;;;5.50;;
13891;SDS011;7016;48.172;8.058;2023-07-08T01:39:08;12.88;;;5.32;;
13891;SDS011;7016;48.172;8.058;2023-07-08T01:41:59;10.95;;;5.50;;
13891;SDS011;7016;48.172;8.058;2023-07-08T01:44:46;10.60;;;5.63;;
13891;SDS011;7016;48.172;8.058;2023-07-08T01:47:32;15.90;;;6.53;;
13891;SDS011;7016;48.172;8.058;2023-07-08T01:50:19;12.68;;;6.25;;
13891;SDS011;7016;48.172;8.058;2023-07-08T01:53:08;13.25;;;5.97;;
13891;SDS011;7016;48.172;8.058;2023-07-08T01:56:01;17.90;;;6.10;;
13891;SDS011;7016;48.172;8.058;2023-07-08T01:58:48;14.23;;;5.70;;
13891;SDS011;7016;48.172;8.058;2023-07-08T02:01:34;14.30;;;5.82;;
13891;SDS011;7016;48.172;8.058;2023-07-08T02:04:21;11.45;;;5.78;;
13891;SDS011;7016;48.172;8.058;2023-07-08T02:07:09;15.00;;;6.20;;
13891;SDS011;7016;48.172;8.058;2023-07-08T02:09:55;9.18;;;5.22;;
13891;SDS011;7016;48.172;8.058;2023-07-08T02:12:41;10.27;;;6.05;;
13891;SDS011;7016;48.172;8.058;2023-07-08T02:15:27;11.52;;;6.10;;
13891;SDS011;7016;48.172;8.058;2023-07-08T02:18:13;9.73;;;5.75;;
13891;SDS011;7016;48.172;8.058;2023-07-08T02:21:00;15.13;;;6.45;;
13891;SDS011;7016;48.172;8.058;2023-07-08T02:23:48;12.40;;;6.00;;
13891;SDS011;7016;48.172;8.058;2023-07-08T02:26:36;11.73;;;5.97;;
13891;SDS011;7016;48.172;8.058;2023-07-08T02:29:22;13.80;;;5.68;;
13891;SDS011;7016;48.172;8.058;2023-07-08T02:32:08;12.25;;;6.45;;
13891;SDS011;7016;48.172;8.058;2023-07-08T02:34:55;15.90;;;6.07;;
13891;SDS011;7016;48.172;8.058;2023-07-08T02:37:41;12.20;;;6.32;;
13891;SDS011;7016;48.172;8.058;2023-07-08T02:40:27;10.00;;;5.90;;
13891;SDS011;7016;48.172;8.058;2023-07-08T02:43:13;11.60;;;6.05;;
13891;SDS011;7016;48.172;8.058;2023-07-08T02:45:59;14.77;;;6.18;;
13891;SDS011;7016;48.172;8.058;2023-07-08T02:48:45;9.57;;;5.50;;
13891;SDS011;7016;48.172;8.058;2023-07-08T02:51:32;13.88;;;6.32;;
13891;SDS011;7016;48.172;8.058;2023-07-08T02:54:18;11.77;;;6.07;;
13891;SDS011;7016;48.172;8.058;2023-07-08T02:57:04;11.15;;;5.82;;
13891;SDS011;7016;48.172;8.058;2023-07-08T02:59:50;10.95;;;5.68;;
13891;SDS011;7016;48.172;8.058;2023-07-08T03:02:36;10.35;;;5.55;;
13891;SDS011;7016;48.172;8.058;2023-07-08T03:05:22;8.85;;;6.30;;
13891;SDS011;7016;48.172;8.058;2023-07-08T03:08:09;17.88;;;6.18;;
13891;SDS011;7016;48.172;8.058;2023-07-08T03:10:59;11.63;;;6.30;;
13891;SDS011;7016;48.172;8.058;2023-07-08T03:13:47;13.45;;;6.32;;
13891;SDS011;7016;48.172;8.058;2023-07-08T03:16:33;10.82;;;6.05;;
13891;SDS011;7016;48.172;8.058;2023-07-08T03:19:19;13.45;;;6.13;;
13891;SDS011;7016;48.172;8.058;2023-07-08T03:22:05;10.07;;;5.80;;
13891;SDS011;7016;48.172;8.058;2023-07-08T03:24:53;11.32;;;6.43;;
13891;SDS011;7016;48.172;8.058;2023-07-08T03:27:39;11.68;;;6.13;;
13891;SDS011;7016;48.172;8.058;2023-07-08T03:30:26;14.10;;;6.35;;
13891;SDS011;7016;48.172;8.058;2023-07-08T03:33:12;14.32;;;6.20;;
13891;SDS011;7016;48.172;8.058;2023-07-08T03:35:58;10.23;;;5.85;;
13891;SDS011;7016;48.172;8.058;2023-07-08T03:38:45;11.48;;;6.15;;
13891;SDS011;7016;48.172;8.058;2023-07-08T03:41:31;13.45;;;5.93;;
13891;SDS011;7016;48.172;8.058;2023-07-08T03:44:17;9.10;;;5.97;;
13891;SDS011;7016;48.172;8.058;2023-07-08T03:47:04;9.45;;;5.80;;
13891;SDS011;7016;48.172;8.058;2023-07-08T03:49:50;9.55;;;5.80;;
13891;SDS011;7016;48.172;8.058;2023-07-08T03:52:36;12.45;;;6.30;;
13891;SDS011;7016;48.172;8.058;2023-07-08T03:55:22;11.25;;;6.00;;
13891;SDS011;7016;48.172;8.058;2023-07-08T03:58:08;15.70;;;6.75;;
13891;SDS011;7016;48.172;8.058;2023-07-08T04:00:55;13.05;;;6.47;;
13891;SDS011;7016;48.172;8.058;2023-07-08T04:03:41;17.02;;;6.53;;
13891;SDS011;7016;48.172;8.058;2023-07-08T04:06:27;17.17;;;7.05;;
13891;SDS011;7016;48.172;8.058;2023-07-08T04:09:17;14.35;;;6.85;;
13891;SDS011;7016;48.172;8.058;2023-07-08T04:12:03;14.95;;;6.60;;
13891;SDS011;7016;48.172;8.058;2023-07-08T04:14:50;12.40;;;5.80;;
13891;SDS011;7016;48.172;8.058;2023-07-08T04:17:43;16.67;;;5.90;;
13891;SDS011;7016;48.172;8.058;2023-07-08T04:20:32;14.52;;;6.13;;
13891;SDS011;7016;48.172;8.058;2023-07-08T04:23:19;13.13;;;5.47;;
13891;SDS011;7016;48.172;8.058;2023-07-08T04:26:07;16.35;;;5.65;;
13891;SDS011;7016;48.172;8.058;2023-07-08T04:28:54;9.73;;;4.63;;
13891;SDS011;7016;48.172;8.058;2023-07-08T04:31:40;13.38;;;5.03;;
13891;SDS011;7016;48.172;8.058;2023-07-08T04:34:26;10.35;;;4.72;;
13891;SDS011;7016;48.172;8.058;2023-07-08T04:37:14;11.57;;;4.95;;
13891;SDS011;7016;48.172;8.058;2023-07-08T04:40:00;10.00;;;4.47;;
13891;SDS011;7016;48.172;8.058;2023-07-08T04:42:46;9.20;;;4.57;;
13891;SDS011;7016;48.172;8.058;2023-07-08T04:45:33;7.18;;;4.18;;
13891;SDS011;7016;48.172;8.058;2023-07-08T04:48:20;8.90;;;3.78;;
13891;SDS011;7016;48.172;8.058;2023-07-08T04:51:07;8.40;;;3.75;;
13891;SDS011;7016;48.172;8.058;2023-07-08T04:53:54;8.85;;;3.60;;
13891;SDS011;7016;48.172;8.058;2023-07-08T04:56:44;4.88;;;3.10;;
13891;SDS011;7016;48.172;8.058;2023-07-08T04:59:31;6.70;;;3.03;;
13891;SDS011;7016;48.172;8.058;2023-07-08T05:02:20;7.63;;;3.20;;
13891;SDS011;7016;48.172;8.058;2023-07-08T05:05:06;14.77;;;3.30;;
13891;SDS011;7016;48.172;8.058;2023-07-08T05:07:52;6.63;;;3.05;;
13891;SDS011;7016;48.172;8.058;2023-07-08T05:10:39;5.30;;;2.92;;
13891;SDS011;7016;48.172;8.058;2023-07-08T05:13:25;7.47;;;2.90;;
13891;SDS011;7016;48.172;8.058;2023-07-08T05:16:11;9.13;;;3.35;;
13891;SDS011;7016;48.172;8.058;2023-07-08T05:18:57;7.05;;;2.60;;
13891;SDS011;7016;48.172;8.058;2023-07-08T05:21:43;7.75;;;3.10;;
13891;SDS011;7016;48.172;8.058;2023-07-08T05:24:30;11.52;;;3.35;;
13891;SDS011;7016;48.172;8.058;2023-07-08T05:27:16;8.98;;;3.35;;
13891;SDS011;7016;48.172;8.058;2023-07-08T05:30:03;6.32;;;2.72;;
13891;SDS011;7016;48.172;8.058;2023-07-08T05:32:50;5.50;;;2.72;;
13891;SDS011;7016;48.172;8.058;2023-07-08T05:35:37;5.93;;;2.75;;
13891;SDS011;7016;48.172;8.058;2023-07-08T05:38:23;9.10;;;3.13;;
13891;SDS011;7016;48.172;8.058;2023-07-08T05:41:09;5.30;;;2.88;;
13891;SDS011;7016;48.172;8.058;2023-07-08T05:43:55;6.45;;;2.72;;
13891;SDS011;7016;48.172;8.058;2023-07-08T05:46:42;7.55;;;2.85;;
13891;SDS011;7016;48.172;8.058;2023-07-08T05:49:28;8.55;;;2.72;;
13891;SDS011;7016;48.172;8.058;2023-07-08T05:52:14;4.85;;;2.55;;
13891;SDS011;7016;48.172;8.058;2023-07-08T05:55:00;5.53;;;2.67;;
13891;SDS011;7016;48.172;8.058;2023-07-08T05:57:46;6.50;;;2.78;;
13891;SDS011;7016;48.172;8.058;2023-07-08T06:00:33;5.50;;;2.58;;
13891;SDS011;7016;48.172;8.058;2023-07-08T06:03:19;4.90;;;2.65;;
13891;SDS011;7016;48.172;8.058;2023-07-08T06:06:05;8.43;;;2.65;;
13891;SDS011;7016;48.172;8.058;2023-07-08T06:08:52;5.85;;;2.90;;
13891;SDS011;7016;48.172;8.058;2023-07-08T06:11:38;6.90;;;3.08;;
13891;SDS011;7016;48.172;8.058;2023-07-08T06:14:24;4.95;;;2.45;;
13891;SDS011;7016;48.172;8.058;2023-07-08T06:17:10;11.00;;;2.97;;
13891;SDS011;7016;48.172;8.058;2023-07-08T06:19:56;5.57;;;2.53;;
13891;SDS011;7016;48.172;8.058;2023-07-08T06:22:42;6.25;;;2.78;;
13891;SDS011;7016;48.172;8.058;2023-07-08T06:25:29;5.10;;;2.10;;
13891;SDS011;7016;48.172;8.058;2023-07-08T06:28:15;5.13;;;2.45;;
13891;SDS011;7016;48.172;8.058;2023-07-08T06:31:01;6.05;;;2.80;;
13891;SDS011;7016;48.172;8.058;2023-07-08T06:33:48;7.70;;;2.72;;
13891;SDS011;7016;48.172;8.058;2023-07-08T06:36:34;5.15;;;2.80;;
13891;SDS011;7016;48.172;8.058;2023-07-08T06:39:20;5.75;;;2.22;;
13891;SDS011;7016;48.172;8.058;2023-07-08T06:42:06;5.95;;;2.50;;
13891;SDS011;7016;48.172;8.058;2023-07-08T06:44:53;4.40;;;2.25;;
13891;SDS011;7016;48.172;8.058;2023-07-08T06:47:39;7.35;;;2.75;;
13891;SDS011;7016;48.172;8.058;2023-07-08T06:50:25;4.50;;;2.20;;
13891;SDS011;7016;48.172;8.058;2023-07-08T06:53:11;5.50;;;2.55;;
13891;SDS011;7016;48.172;8.058;2023-07-08T06:55:57;6.65;;;2.60;;
13891;SDS011;7016;48.172;8.058;2023-07-08T06:58:44;7.90;;;2.85;;
13891;SDS011;7016;48.172;8.058;2023-07-08T07:01:31;4.50;;;2.47;;
13891;SDS011;7016;48.172;8.058;2023-07-08T07:04:17;5.35;;;2.63;;
13891;SDS011;7016;48.172;8.058;2023-07-08T07:07:03;5.35;;;3.03;;
13891;SDS011;7016;48.172;8.058;2023-07-08T07:09:50;5.40;;;2.70;;
13891;SDS011;7016;48.172;8.058;2023-07-08T07:12:36;4.43;;;2.50;;
13891;SDS011;7016;48.172;8.058;2023-07-08T07:15:22;9.95;;;2.92;;
13891;SDS011;7016;48.172;8.058;2023-07-08T07:18:10;6.57;;;2.80;;
13891;SDS011;7016;48.172;8.058;2023-07-08T07:20:57;5.72;;;2.67;;
13891;SDS011;7016;48.172;8.058;2023-07-08T07:23:44;9.45;;;2.90;;
13891;SDS011;7016;48.172;8.058;2023-07-08T07:26:30;5.53;;;2.78;;
13891;SDS011;7016;48.172;8.058;2023-07-08T07:29:17;5.35;;;2.85;;
13891;SDS011;7016;48.172;8.058;2023-07-08T07:32:04;6.80;;;2.90;;
13891;SDS011;7016;48.172;8.058;2023-07-08T07:34:50;6.50;;;3.05;;
13891;SDS011;7016;48.172;8.058;2023-07-08T07:37:37;5.38;;;3.03;;
13891;SDS011;7016;48.172;8.058;2023-07-08T07:40:23;6.32;;;2.95;;
13891;SDS011;7016;48.172;8.058;2023-07-08T07:43:10;5.80;;;2.85;;
13891;SDS011;7016;48.172;8.058;2023-07-08T07:45:56;8.90;;;3.17;;
13891;SDS011;7016;48.172;8.058;2023-07-08T07:48:42;5.85;;;2.70;;
13891;SDS011;7016;48.172;8.058;2023-07-08T07:51:28;5.38;;;2.45;;
13891;SDS011;7016;48.172;8.058;2023-07-08T07:54:15;9.93;;;3.05;;
13891;SDS011;7016;48.172;8.058;2023-07-08T07:57:01;5.80;;;2.90;;
13891;SDS011;7016;48.172;8.058;2023-07-08T07:59:48;14.40;;;2.90;;
13891;SDS011;7016;48.172;8.058;2023-07-08T08:02:34;5.78;;;2.65;;
13891;SDS011;7016;48.172;8.058;2023-07-08T08:05:21;15.45;;;3.00;;
13891;SDS011;7016;48.172;8.058;2023-07-08T08:08:07;8.38;;;2.97;;
13891;SDS011;7016;48.172;8.058;2023-07-08T08:10:53;7.88;;;2.58;;
13891;SDS011;7016;48.172;8.058;2023-07-08T08:13:39;5.38;;;2.40;;
13891;SDS011;7016;48.172;8.058;2023-07-08T08:16:25;3.95;;;2.30;;
13891;SDS011;7016;48.172;8.058;2023-07-08T08:19:11;5.28;;;2.30;;
13891;SDS011;7016;48.172;8.058;2023-07-08T08:21:58;6.45;;;2.80;;
13891;SDS011;7016;48.172;8.058;2023-07-08T08:24:44;4.78;;;2.50;;
13891;SDS011;7016;48.172;8.058;2023-07-08T08:27:30;5.78;;;2.42;;
13891;SDS011;7016;48.172;8.058;2023-07-08T08:30:16;4.30;;;2.10;;
13891;SDS011;7016;48.172;8.058;2023-07-08T08:33:03;6.70;;;2.30;;
13891;SDS011;7016;48.172;8.058;2023-07-08T08:35:49;4.43;;;2.50;;
13891;SDS011;7016;48.172;8.058;2023-07-08T08:38:35;4.07;;;2.10;;
13891;SDS011;7016;48.172;8.058;2023-07-08T08:41:29;5.68;;;2.60;;
13891;SDS011;7016;48.172;8.058;2023-07-08T08:44:17;3.97;;;1.90;;
13891;SDS011;7016;48.172;8.058;2023-07-08T08:47:54;5.68;;;1.70;;
13891;SDS011;7016;48.172;8.058;2023-07-08T08:50:43;3.60;;;1.90;;
13891;SDS011;7016;48.172;8.058;2023-07-08T08:53:38;3.28;;;2.10;;
13891;SDS011;7016;48.172;8.058;2023-07-08T08:56:33;7.35;;;2.40;;
13891;SDS011;7016;48.172;8.058;2023-07-08T08:59:27;6.95;;;2.30;;
13891;SDS011;7016;48.172;8.058;2023-07-08T09:05:34;6.82;;;2.53;;
13891;SDS011;7016;48.172;8.058;2023-07-08T09:08:27;6.13;;;2.53;;
13891;SDS011;7016;48.172;8.058;2023-07-08T09:14:18;3.30;;;2.30;;
13891;SDS011;7016;48.172;8.058;2023-07-08T09:20:21;4.03;;;2.40;;
13891;SDS011;7016;48.172;8.058;2023-07-08T09:23:26;7.65;;;2.58;;
13891;SDS011;7016;48.172;8.058;2023-07-08T09:26:19;11.98;;;2.38;;
13891;SDS011;7016;48.172;8.058;2023-07-08T09:29:10;4.22;;;2.10;;
13891;SDS011;7016;48.172;8.058;2023-07-08T09:31:57;5.55;;;2.00;;
13891;SDS011;7016;48.172;8.058;2023-07-08T09:34:54;4.13;;;1.95;;
13891;SDS011;7016;48.172;8.058;2023-07-08T09:37:47;4.47;;;2.17;;
13891;SDS011;7016;48.172;8.058;2023-07-08T09:40:34;3.33;;;1.70;;
13891;SDS011;7016;48.172;8.058;2023-07-08T09:46:12;5.30;;;1.73;;
13891;SDS011;7016;48.172;8.058;2023-07-08T09:48:58;5.57;;;2.10;;
13891;SDS011;7016;48.172;8.058;2023-07-08T09:51:45;5.88;;;1.90;;
13891;SDS011;7016;48.172;8.058;2023-07-08T09:54:32;3.17;;;1.70;;
13891;SDS011;7016;48.172;8.058;2023-07-08T10:00:18;2.88;;;1.60;;
13891;SDS011;7016;48.172;8.058;2023-07-08T10:03:17;4.68;;;1.98;;
13891;SDS011;7016;48.172;8.058;2023-07-08T10:06:17;4.22;;;1.90;;
13891;SDS011;7016;48.172;8.058;2023-07-08T10:09:11;3.47;;;1.90;;
13891;SDS011;7016;48.172;8.058;2023-07-08T10:12:04;3.45;;;1.90;;
13891;SDS011;7016;48.172;8.058;2023-07-08T10:14:59;4.30;;;1.75;;
13891;SDS011;7016;48.172;8.058;2023-07-08T10:17:50;5.45;;;2.10;;
13891;SDS011;7016;48.172;8.058;2023-07-08T10:20:39;3.95;;;2.00;;
13891;SDS011;7016;48.172;8.058;2023-07-08T10:26:53;4.20;;;1.85;;
13891;SDS011;7016;48.172;8.058;2023-07-08T10:35:42;4.47;;;2.10;;
13891;SDS011;7016;48.172;8.058;2023-07-08T10:44:44;2.97;;;1.92;;
13891;SDS011;7016;48.172;8.058;2023-07-08T10:50:51;5.93;;;2.30;;
13891;SDS011;7016;48.172;8.058;2023-07-08T11:09:00;4.47;;;2.00;;
13891;SDS011;7016;48.172;8.058;2023-07-08T11:12:52;3.78;;;2.45;;
13891;SDS011;7016;48.172;8.058;2023-07-08T11:15:20;3.40;;;2.55;;
13891;SDS011;7016;48.172;8.058;2023-07-08T11:18:15;3.42;;;2.08;;
13891;SDS011;7016;48.172;8.058;2023-07-08T11:21:12;4.60;;;2.13;;
13891;SDS011;7016;48.172;8.058;2023-07-08T11:24:05;3.45;;;2.22;;
13891;SDS011;7016;48.172;8.058;2023-07-08T11:27:02;4.32;;;2.42;;
13891;SDS011;7016;48.172;8.058;2023-07-08T11:30:14;3.45;;;2.05;;
13891;SDS011;7016;48.172;8.058;2023-07-08T11:33:06;4.63;;;2.42;;
13891;SDS011;7016;48.172;8.058;2023-07-08T11:35:57;4.18;;;2.30;;
13891;SDS011;7016;48.172;8.058;2023-07-08T11:38:48;3.60;;;2.33;;
13891;SDS011;7016;48.172;8.058;2023-07-08T11:41:39;4.38;;;2.47;;
13891;SDS011;7016;48.172;8.058;2023-07-08T11:44:25;5.07;;;2.65;;
13891;SDS011;7016;48.172;8.058;2023-07-08T11:47:17;6.78;;;2.60;;
13891;SDS011;7016;48.172;8.058;2023-07-08T11:50:29;6.18;;;2.30;;
13891;SDS011;7016;48.172;8.058;2023-07-08T11:56:21;6.35;;;2.58;;
13891;SDS011;7016;48.172;8.058;2023-07-08T11:59:14;4.80;;;2.42;;
13891;SDS011;7016;48.172;8.058;2023-07-08T12:04:59;4.93;;;2.50;;
13891;SDS011;7016;48.172;8.058;2023-07-08T12:07:50;4.25;;;2.70;;
13891;SDS011;7016;48.172;8.058;2023-07-08T12:10:47;4.25;;;2.42;;
13891;SDS011;7016;48.172;8.058;2023-07-08T12:13:36;3.78;;;2.40;;
13891;SDS011;7016;48.172;8.058;2023-07-08T12:16:22;5.30;;;2.40;;
13891;SDS011;7016;48.172;8.058;2023-07-08T12:19:09;5.10;;;2.33;;
13891;SDS011;7016;48.172;8.058;2023-07-08T12:22:01;3.92;;;2.38;;
13891;SDS011;7016;48.172;8.058;2023-07-08T12:24:49;6.97;;;2.30;;
13891;SDS011;7016;48.172;8.058;2023-07-08T12:27:35;6.88;;;2.83;;
13891;SDS011;7016;48.172;8.058;2023-07-08T12:30:21;6.22;;;2.60;;
13891;SDS011;7016;48.172;8.058;2023-07-08T12:33:23;5.00;;;2.88;;
13891;SDS011;7016;48.172;8.058;2023-07-08T12:36:19;4.47;;;2.47;;
13891;SDS011;7016;48.172;8.058;2023-07-08T12:39:08;6.55;;;2.75;;
13891;SDS011;7016;48.172;8.058;2023-07-08T12:42:07;4.72;;;2.83;;
13891;SDS011;7016;48.172;8.058;2023-07-08T12:44:56;6.30;;;2.97;;
13891;SDS011;7016;48.172;8.058;2023-07-08T12:47:43;5.88;;;2.75;;
13891;SDS011;7016;48.172;8.058;2023-07-08T12:50:29;7.00;;;2.83;;
13891;SDS011;7016;48.172;8.058;2023-07-08T12:53:16;4.75;;;2.80;;
13891;SDS011;7016;48.172;8.058;2023-07-08T12:56:02;6.35;;;2.90;;
13891;SDS011;7016;48.172;8.058;2023-07-08T12:58:52;5.05;;;2.58;;
13891;SDS011;7016;48.172;8.058;2023-07-08T13:01:41;5.63;;;2.75;;
13891;SDS011;7016;48.172;8.058;2023-07-08T13:04:28;5.65;;;2.60;;
13891;SDS011;7016;48.172;8.058;2023-07-08T13:07:57;6.55;;;2.97;;
13891;SDS011;7016;48.172;8.058;2023-07-08T13:10:27;6.55;;;3.22;;
13891;SDS011;7016;48.172;8.058;2023-07-08T13:13:19;5.00;;;2.58;;
13891;SDS011;7016;48.172;8.058;2023-07-08T13:16:08;6.55;;;2.50;;
13891;SDS011;7016;48.172;8.058;2023-07-08T13:18:56;5.25;;;2.83;;
13891;SDS011;7016;48.172;8.058;2023-07-08T13:21:42;3.95;;;2.58;;
13891;SDS011;7016;48.172;8.058;2023-07-08T13:24:30;4.65;;;2.50;;
13891;SDS011;7016;48.172;8.058;2023-07-08T13:27:22;4.25;;;2.35;;
13891;SDS011;7016;48.172;8.058;2023-07-08T13:30:17;5.72;;;2.78;;
13891;SDS011;7016;48.172;8.058;2023-07-08T13:33:14;5.78;;;2.70;;
13891;SDS011;7016;48.172;8.058;2023-07-08T13:36:02;5.90;;;2.90;;
13891;SDS011;7016;48.172;8.058;2023-07-08T13:38:50;5.22;;;2.70;;
13891;SDS011;7016;48.172;8.058;2023-07-08T13:41:37;7.72;;;2.88;;
13891;SDS011;7016;48.172;8.058;2023-07-08T13:44:31;5.45;;;2.70;;
13891;SDS011;7016;48.172;8.058;2023-07-08T13:47:26;8.55;;;2.85;;
13891;SDS011;7016;48.172;8.058;2023-07-08T13:50:16;6.47;;;2.90;;
13891;SDS011;7016;48.172;8.058;2023-07-08T13:53:15;9.15;;;3.30;;
13891;SDS011;7016;48.172;8.058;2023-07-08T13:56:07;6.18;;;3.10;;
13891;SDS011;7016;48.172;8.058;2023-07-08T13:59:05;5.82;;;2.80;;
13891;SDS011;7016;48.172;8.058;2023-07-08T14:01:55;7.72;;;2.90;;
13891;SDS011;7016;48.172;8.058;2023-07-08T14:04:42;5.18;;;2.47;;
13891;SDS011;7016;48.172;8.058;2023-07-08T14:07:32;5.35;;;2.85;;
13891;SDS011;7016;48.172;8.058;2023-07-08T14:10:19;6.82;;;2.95;;
13891;SDS011;7016;48.172;8.058;2023-07-08T14:13:05;4.95;;;2.95;;
13891;SDS011;7016;48.172;8.058;2023-07-08T14:15:51;6.78;;;2.90;;
13891;SDS011;7016;48.172;8.058;2023-07-08T14:18:37;7.07;;;3.25;;
13891;SDS011;7016;48.172;8.058;2023-07-08T14:21:23;5.00;;;3.17;;
13891;SDS011;7016;48.172;8.058;2023-07-08T14:24:13;7.38;;;3.47;;
13891;SDS011;7016;48.172;8.058;2023-07-08T14:27:00;8.23;;;3.50;;
13891;SDS011;7016;48.172;8.058;2023-07-08T14:29:48;7.85;;;3.15;;
13891;SDS011;7016;48.172;8.058;2023-07-08T14:32:36;9.40;;;3.38;;
13891;SDS011;7016;48.172;8.058;2023-07-08T14:35:23;6.25;;;3.53;;
13891;SDS011;7016;48.172;8.058;2023-07-08T14:38:11;6.70;;;3.13;;
13891;SDS011;7016;48.172;8.058;2023-07-08T14:40:58;8.48;;;3.10;;
13891;SDS011;7016;48.172;8.058;2023-07-08T14:43:44;6.35;;;3.28;;
13891;SDS011;7016;48.172;8.058;2023-07-08T14:46:30;6.05;;;3.17;;
13891;SDS011;7016;48.172;8.058;2023-07-08T14:49:18;6.93;;;3.70;;
13891;SDS011;7016;48.172;8.058;2023-07-08T14:52:06;7.00;;;3.38;;
13891;SDS011;7016;48.172;8.058;2023-07-08T14:54:53;5.70;;;3.20;;
13891;SDS011;7016;48.172;8.058;2023-07-08T14:57:45;6.75;;;3.33;;
13891;SDS011;7016;48.172;8.058;2023-07-08T15:00:34;7.28;;;3.03;;
13891;SDS011;7016;48.172;8.058;2023-07-08T15:03:20;8.07;;;3.45;;
13891;SDS011;7016;48.172;8.058;2023-07-08T15:06:10;5.88;;;3.40;;
13891;SDS011;7016;48.172;8.058;2023-07-08T15:08:57;13.52;;;3.67;;
13891;SDS011;7016;48.172;8.058;2023-07-08T15:11:43;6.80;;;3.20;;
13891;SDS011;7016;48.172;8.058;2023-07-08T15:14:30;6.47;;;3.15;;
13891;SDS011;7016;48.172;8.058;2023-07-08T15:17:18;7.72;;;3.28;;
13891;SDS011;7016;48.172;8.058;2023-07-08T15:20:11;7.60;;;3.80;;
13891;SDS011;7016;48.172;8.058;2023-07-08T15:22:59;7.35;;;3.72;;
13891;SDS011;7016;48.172;8.058;2023-07-08T15:25:45;7.45;;;3.47;;
13891;SDS011;7016;48.172;8.058;2023-07-08T15:28:39;6.95;;;3.40;;
13891;SDS011;7016;48.172;8.058;2023-07-08T15:31:33;5.45;;;3.22;;
13891;SDS011;7016;48.172;8.058;2023-07-08T15:34:21;6.47;;;3.08;;
13891;SDS011;7016;48.172;8.058;2023-07-08T15:37:08;8.18;;;3.30;;
13891;SDS011;7016;48.172;8.058;2023-07-08T15:39:54;7.03;;;3.30;;
13891;SDS011;7016;48.172;8.058;2023-07-08T15:42:40;5.82;;;3.17;;
13891;SDS011;7016;48.172;8.058;2023-07-08T15:45:28;8.57;;;3.28;;
13891;SDS011;7016;48.172;8.058;2023-07-08T15:48:18;5.38;;;3.53;;
13891;SDS011;7016;48.172;8.058;2023-07-08T15:51:04;9.77;;;3.90;;
13891;SDS011;7016;48.172;8.058;2023-07-08T15:53:50;6.75;;;3.20;;
13891;SDS011;7016;48.172;8.058;2023-07-08T15:56:36;6.15;;;2.97;;
13891;SDS011;7016;48.172;8.058;2023-07-08T15:59:24;7.75;;;3.30;;
13891;SDS011;7016;48.172;8.058;2023-07-08T16:02:35;7.45;;;3.00;;
13891;SDS011;7016;48.172;8.058;2023-07-08T16:05:22;7.65;;;3.50;;
13891;SDS011;7016;48.172;8.058;2023-07-08T16:08:09;7.65;;;3.60;;
13891;SDS011;7016;48.172;8.058;2023-07-08T16:11:00;7.20;;;3.58;;
13891;SDS011;7016;48.172;8.058;2023-07-08T16:13:49;9.82;;;3.33;;
13891;SDS011;7016;48.172;8.058;2023-07-08T16:16:35;6.47;;;3.13;;
13891;SDS011;7016;48.172;8.058;2023-07-08T16:19:21;7.07;;;2.97;;
13891;SDS011;7016;48.172;8.058;2023-07-08T16:22:07;12.55;;;3.30;;
13891;SDS011;7016;48.172;8.058;2023-07-08T16:24:53;7.30;;;3.33;;
13891;SDS011;7016;48.172;8.058;2023-07-08T16:27:41;7.70;;;3.42;;
13891;SDS011;7016;48.172;8.058;2023-07-08T16:30:28;7.68;;;3.95;;
13891;SDS011;7016;48.172;8.058;2023-07-08T16:33:15;14.75;;;3.92;;
13891;SDS011;7016;48.172;8.058;2023-07-08T16:36:01;7.10;;;3.75;;
13891;SDS011;7016;48.172;8.058;2023-07-08T16:38:48;12.45;;;3.58;;
13891;SDS011;7016;48.172;8.058;2023-07-08T16:41:35;11.55;;;3.70;;
13891;SDS011;7016;48.172;8.058;2023-07-08T16:44:22;8.50;;;3.95;;
13891;SDS011;7016;48.172;8.058;2023-07-08T16:47:08;7.30;;;3.60;;
13891;SDS011;7016;48.172;8.058;2023-07-08T16:49:55;8.60;;;3.17;;
13891;SDS011;7016;48.172;8.058;2023-07-08T16:52:41;6.53;;;3.83;;
13891;SDS011;7016;48.172;8.058;2023-07-08T16:55:28;7.40;;;3.67;;
13891;SDS011;7016;48.172;8.058;2023-07-08T16:58:14;6.30;;;3.38;;
13891;SDS011;7016;48.172;8.058;2023-07-08T17:01:00;9.88;;;3.47;;
13891;SDS011;7016;48.172;8.058;2023-07-08T17:03:48;7.75;;;4.13;;
13891;SDS011;7016;48.172;8.058;2023-07-08T17:06:36;6.85;;;3.50;;
13891;SDS011;7016;48.172;8.058;2023-07-08T17:09:22;8.13;;;3.67;;
13891;SDS011;7016;48.172;8.058;2023-07-08T17:12:09;8.60;;;3.60;;
13891;SDS011;7016;48.172;8.058;2023-07-08T17:14:55;9.40;;;3.80;;
13891;SDS011;7016;48.172;8.058;2023-07-08T17:17:43;7.55;;;3.60;;
13891;SDS011;7016;48.172;8.058;2023-07-08T17:20:37;8.18;;;3.20;;
13891;SDS011;7016;48.172;8.058;2023-07-08T17:23:24;9.57;;;3.47;;
13891;SDS011;7016;48.172;8.058;2023-07-08T17:26:11;7.35;;;3.47;;
13891;SDS011;7016;48.172;8.058;2023-07-08T17:28:58;7.68;;;3.50;;
13891;SDS011;7016;48.172;8.058;2023-07-08T17:31:44;7.63;;;3.50;;
13891;SDS011;7016;48.172;8.058;2023-07-08T17:34:30;7.05;;;3.65;;
13891;SDS011;7016;48.172;8.058;2023-07-08T17:37:18;9.90;;;3.70;;
13891;SDS011;7016;48.172;8.058;2023-07-08T17:40:07;8.38;;;3.67;;
13891;SDS011;7016;48.172;8.058;2023-07-08T17:43:04;7.78;;;3.35;;
13891;SDS011;7016;48.172;8.058;2023-07-08T17:45:50;5.70;;;3.60;;
13891;SDS011;7016;48.172;8.058;2023-07-08T17:48:36;8.75;;;3.47;;
13891;SDS011;7016;48.172;8.058;2023-07-08T17:51:25;6.63;;;3.65;;
13891;SDS011;7016;48.172;8.058;2023-07-08T17:54:15;6.57;;;3.70;;
13891;SDS011;7016;48.172;8.058;2023-07-08T17:57:02;11.57;;;3.72;;
13891;SDS011;7016;48.172;8.058;2023-07-08T17:59:48;7.05;;;3.92;;
13891;SDS011;7016;48.172;8.058;2023-07-08T18:02:34;6.65;;;3.38;;
13891;SDS011;7016;48.172;8.058;2023-07-08T18:05:25;7.40;;;3.63;;